Time;durP1;ratioP1;P1;durP2;ratioP2;P2;SDS_P1;SDS_P2;PMS_P1;PMS_P2;Temp;Humidity;BMP_temperature;BMP_pressure;BME280_temperature;BME280_humidity;BME280_pressure;Samples;Min_cycle;Max_cycle;Signal;HPM_P1;HPM_P2
2023/08/13 00:00:57;;;;;;;1.55;1.30;;;;;;;;;;6216066;23;20205;-92
2023/08/13 00:03:24;;;;;;;1.48;1.38;;;;;;;;;;6217269;23;20572;-92
2023/08/13 00:05:52;;;;;;;1.60;1.48;;;;;;;;;;6217153;23;20253;-92
2023/08/13 00:08:21;;;;;;;1.50;1.25;;;;;;;;;;6216524;23;20212;-92
2023/08/13 00:10:49;;;;;;;1.55;1.40;;;;;;;;;;6215722;23;20228;-93
2023/08/13 00:13:16;;;;;;;1.65;1.55;;;;;;;;;;6216873;23;20174;-92
2023/08/13 00:15:44;;;;;;;2.05;1.75;;;;;;;;;;6216998;23;20189;-93
2023/08/13 00:18:13;;;;;;;2.55;1.40;;;;;;;;;;6215758;23;20241;-92
2023/08/13 00:20:40;;;;;;;1.95;1.35;;;;;;;;;;6216080;23;20200;-92
2023/08/13 00:23:08;;;;;;;1.45;1.35;;;;;;;;;;6215843;23;20584;-92
2023/08/13 00:25:37;;;;;;;1.85;1.33;;;;;;;;;;6216239;23;20717;-93
2023/08/13 00:28:05;;;;;;;2.20;1.45;;;;;;;;;;6216094;23;20237;-92
2023/08/13 00:30:33;;;;;;;1.15;1.15;;;;;;;;;;6216093;23;20273;-92
2023/08/13 00:33:00;;;;;;;1.88;1.52;;;;;;;;;;6216728;23;20196;-93
2023/08/13 00:35:28;;;;;;;1.60;1.30;;;;;;;;;;6217359;23;20245;-93
2023/08/13 00:37:55;;;;;;;1.67;1.58;;;;;;;;;;6216091;23;20170;-93
2023/08/13 00:40:23;;;;;;;2.22;1.55;;;;;;;;;;6215616;23;20214;-93
2023/08/13 00:42:53;;;;;;;1.20;1.10;;;;;;;;;;6215600;23;20241;-92
2023/08/13 00:45:20;;;;;;;1.30;1.30;;;;;;;;;;6217470;23;20197;-93
2023/08/13 00:47:48;;;;;;;1.40;1.15;;;;;;;;;;6216016;23;20245;-92
2023/08/13 00:50:16;;;;;;;1.20;1.20;;;;;;;;;;6215901;23;20205;-93
2023/08/13 00:52:44;;;;;;;1.60;1.50;;;;;;;;;;6216206;23;20189;-92
2023/08/13 00:55:12;;;;;;;1.20;1.10;;;;;;;;;;6216236;23;20181;-94
2023/08/13 00:57:40;;;;;;;1.33;1.15;;;;;;;;;;6216373;23;20189;-92
2023/08/13 01:00:12;;;;;;;1.88;1.58;;;;;;;;;;6215512;23;20190;-93
2023/08/13 01:02:39;;;;;;;1.52;1.40;;;;;;;;;;6215492;23;20170;-93
2023/08/13 01:05:07;;;;;;;1.00;1.00;;;;;;;;;;6215343;23;20269;-92
2023/08/13 01:07:42;;;;;;;2.58;1.10;;;;;;;;;;6215296;23;20512;-92
2023/08/13 01:10:19;;;;;;;1.08;1.08;;;;;;;;;;6215449;23;20284;-92
2023/08/13 01:12:53;;;;;;;1.63;1.52;;;;;;;;;;6216487;23;20153;-92
2023/08/13 01:15:28;;;;;;;3.08;1.27;;;;;;;;;;6216301;23;20209;-92
2023/08/13 01:17:57;;;;;;;1.02;0.98;;;;;;;;;;6215380;23;20217;-92
2023/08/13 01:20:29;;;;;;;1.02;1.00;;;;;;;;;;6215275;23;20190;-92
2023/08/13 01:22:58;;;;;;;1.42;1.20;;;;;;;;;;6215053;23;20180;-93
2023/08/13 01:25:28;;;;;;;1.15;0.93;;;;;;;;;;6215829;23;20261;-91
2023/08/13 01:28:03;;;;;;;3.20;1.30;;;;;;;;;;6216371;23;20669;-93
2023/08/13 01:30:38;;;;;;;0.90;0.90;;;;;;;;;;6214876;23;20189;-92
2023/08/13 01:33:09;;;;;;;1.05;0.98;;;;;;;;;;6216040;23;20165;-93
2023/08/13 01:35:37;;;;;;;0.95;0.95;;;;;;;;;;6216476;23;20185;-93
2023/08/13 01:38:07;;;;;;;1.13;1.00;;;;;;;;;;6216208;23;20189;-92
2023/08/13 01:40:35;;;;;;;1.65;0.93;;;;;;;;;;6215012;23;20196;-92
2023/08/13 01:43:02;;;;;;;0.93;0.93;;;;;;;;;;6214821;23;20192;-92
2023/08/13 01:45:30;;;;;;;2.35;1.15;;;;;;;;;;6215702;23;20268;-93
2023/08/13 01:47:58;;;;;;;1.23;0.88;;;;;;;;;;6215227;23;20189;-92
2023/08/13 01:50:25;;;;;;;1.38;1.20;;;;;;;;;;6214622;23;20572;-92
2023/08/13 01:52:53;;;;;;;1.17;1.10;;;;;;;;;;6215903;23;20184;-93
2023/08/13 01:55:22;;;;;;;2.83;1.48;;;;;;;;;;6215245;23;20193;-92
2023/08/13 01:57:50;;;;;;;1.25;1.13;;;;;;;;;;6215434;23;20189;-93
2023/08/13 02:00:18;;;;;;;1.20;1.10;;;;;;;;;;6218237;23;20242;-92
2023/08/13 02:02:45;;;;;;;2.55;1.27;;;;;;;;;;6214723;23;20723;-91
2023/08/13 02:05:13;;;;;;;1.50;0.90;;;;;;;;;;6215350;23;20657;-92
2023/08/13 02:07:41;;;;;;;1.55;1.17;;;;;;;;;;6215784;23;20681;-92
2023/08/13 02:10:09;;;;;;;1.63;1.20;;;;;;;;;;6214832;23;20212;-91
2023/08/13 02:12:38;;;;;;;2.13;1.17;;;;;;;;;;6225617;23;20193;-93
2023/08/13 02:15:08;;;;;;;1.00;1.00;;;;;;;;;;6235215;23;20169;-93
2023/08/13 02:17:35;;;;;;;1.15;1.05;;;;;;;;;;6227184;23;20169;-93
2023/08/13 02:20:03;;;;;;;1.33;1.10;;;;;;;;;;6226368;23;20181;-93
2023/08/13 02:22:31;;;;;;;1.85;1.40;;;;;;;;;;6226575;23;20190;-93
2023/08/13 02:24:59;;;;;;;1.58;1.25;;;;;;;;;;6227894;23;20674;-93
2023/08/13 02:27:26;;;;;;;0.80;0.80;;;;;;;;;;6227522;23;20181;-93
2023/08/13 02:29:56;;;;;;;1.02;1.02;;;;;;;;;;6226856;23;20173;-94
2023/08/13 02:32:23;;;;;;;4.43;1.58;;;;;;;;;;6226794;23;20173;-93
2023/08/13 02:34:51;;;;;;;1.60;1.50;;;;;;;;;;6226443;23;20169;-92
2023/08/13 02:37:19;;;;;;;2.60;1.55;;;;;;;;;;6226461;23;20196;-93
2023/08/13 02:39:46;;;;;;;0.90;0.90;;;;;;;;;;6226985;23;20181;-93
2023/08/13 02:42:14;;;;;;;0.90;0.90;;;;;;;;;;6226818;23;20190;-93
2023/08/13 02:44:41;;;;;;;1.33;1.23;;;;;;;;;;6226439;23;20210;-94
2023/08/13 02:47:10;;;;;;;0.85;0.85;;;;;;;;;;6227359;23;20170;-94
2023/08/13 02:49:38;;;;;;;1.73;1.10;;;;;;;;;;6226495;23;20181;-93
2023/08/13 02:52:06;;;;;;;1.60;1.30;;;;;;;;;;6227063;23;20193;-93
2023/08/13 02:54:34;;;;;;;0.98;0.80;;;;;;;;;;6226571;23;20186;-93
2023/08/13 02:57:01;;;;;;;1.15;1.05;;;;;;;;;;6226341;23;20174;-93
2023/08/13 02:59:29;;;;;;;1.38;1.27;;;;;;;;;;6226402;23;20177;-93
2023/08/13 03:01:56;;;;;;;1.70;1.60;;;;;;;;;;6225482;23;20194;-93
2023/08/13 03:04:25;;;;;;;1.17;1.02;;;;;;;;;;6226229;23;20189;-93
2023/08/13 03:06:53;;;;;;;0.80;0.80;;;;;;;;;;6227822;23;20201;-93
2023/08/13 03:09:22;;;;;;;0.95;0.95;;;;;;;;;;6232159;23;20165;-93
2023/08/13 03:11:50;;;;;;;0.93;0.88;;;;;;;;;;6241521;23;20193;-93
2023/08/13 03:14:18;;;;;;;0.82;0.80;;;;;;;;;;6242523;23;20146;-93
2023/08/13 03:16:46;;;;;;;0.90;0.90;;;;;;;;;;6240815;23;20146;-94
2023/08/13 03:19:13;;;;;;;1.55;1.38;;;;;;;;;;6236670;23;20154;-94
2023/08/13 03:21:42;;;;;;;1.60;0.85;;;;;;;;;;6236125;23;20197;-93
2023/08/13 03:24:10;;;;;;;0.77;0.77;;;;;;;;;;6236695;23;20232;-94
2023/08/13 03:26:38;;;;;;;1.25;1.15;;;;;;;;;;6236727;23;20186;-93
2023/08/13 03:29:06;;;;;;;0.80;0.80;;;;;;;;;;6236799;23;20157;-92
2023/08/13 03:31:33;;;;;;;0.90;0.90;;;;;;;;;;6237456;23;20186;-93
2023/08/13 03:34:01;;;;;;;0.70;0.70;;;;;;;;;;6238894;23;20170;-94
2023/08/13 03:36:29;;;;;;;1.20;1.10;;;;;;;;;;6238769;23;20173;-94
2023/08/13 03:38:58;;;;;;;0.73;0.73;;;;;;;;;;6238664;23;20164;-95
2023/08/13 03:41:26;;;;;;;1.17;1.15;;;;;;;;;;6238238;23;20188;-95
2023/08/13 03:43:54;;;;;;;0.80;0.80;;;;;;;;;;6238644;23;20150;-95
2023/08/13 03:46:21;;;;;;;0.70;0.70;;;;;;;;;;6238240;23;20193;-94
2023/08/13 03:48:49;;;;;;;0.60;0.60;;;;;;;;;;6238306;23;20154;-93
2023/08/13 03:51:16;;;;;;;0.60;0.60;;;;;;;;;;6238449;23;20183;-93
2023/08/13 03:53:44;;;;;;;0.90;0.90;;;;;;;;;;6238773;23;20169;-94
2023/08/13 03:56:13;;;;;;;0.90;0.90;;;;;;;;;;6238498;23;20170;-94
2023/08/13 03:58:40;;;;;;;1.20;1.10;;;;;;;;;;6238637;23;20157;-93
2023/08/13 04:01:09;;;;;;;1.40;1.30;;;;;;;;;;6238178;23;20177;-95
2023/08/13 04:03:36;;;;;;;2.08;1.70;;;;;;;;;;6238263;23;20207;-93
2023/08/13 04:06:04;;;;;;;1.00;1.00;;;;;;;;;;6238010;23;20185;-96
2023/08/13 04:08:34;;;;;;;0.85;0.85;;;;;;;;;;6238303;23;20189;-93
2023/08/13 04:11:01;;;;;;;0.70;0.70;;;;;;;;;;6231554;23;20194;-93
2023/08/13 04:13:30;;;;;;;0.75;0.75;;;;;;;;;;6219189;23;20189;-93
2023/08/13 04:15:58;;;;;;;0.80;0.80;;;;;;;;;;6218658;23;20194;-94
2023/08/13 04:18:26;;;;;;;1.23;1.23;;;;;;;;;;6221412;23;20174;-93
2023/08/13 04:20:53;;;;;;;1.08;1.00;;;;;;;;;;6218447;23;20194;-93
2023/08/13 04:23:21;;;;;;;1.00;1.00;;;;;;;;;;6218163;23;20665;-95
2023/08/13 04:25:49;;;;;;;1.00;1.00;;;;;;;;;;6219525;23;20564;-95
2023/08/13 04:28:16;;;;;;;1.48;1.20;;;;;;;;;;6220043;23;20200;-94
2023/08/13 04:30:45;;;;;;;1.83;1.38;;;;;;;;;;6219332;23;20216;-93
2023/08/13 04:33:13;;;;;;;1.30;1.00;;;;;;;;;;6217514;23;20188;-93
2023/08/13 04:35:40;;;;;;;1.38;1.08;;;;;;;;;;6219656;23;20181;-93
2023/08/13 04:38:08;;;;;;;1.40;1.30;;;;;;;;;;6217680;23;20173;-92
2023/08/13 04:40:36;;;;;;;1.38;1.20;;;;;;;;;;6218725;23;20545;-92
2023/08/13 04:43:03;;;;;;;1.20;1.20;;;;;;;;;;6217547;23;20193;-93
2023/08/13 04:45:31;;;;;;;3.40;1.10;;;;;;;;;;6218541;23;20184;-93
2023/08/13 04:48:00;;;;;;;1.05;1.05;;;;;;;;;;6218598;23;20180;-92
2023/08/13 04:50:28;;;;;;;1.25;1.25;;;;;;;;;;6219117;23;20217;-93
2023/08/13 04:52:55;;;;;;;0.82;0.82;;;;;;;;;;6218581;23;20194;-93
2023/08/13 04:55:23;;;;;;;1.30;1.20;;;;;;;;;;6221218;23;20177;-93
2023/08/13 04:57:50;;;;;;;0.80;0.80;;;;;;;;;;6218162;23;20174;-93
2023/08/13 05:00:18;;;;;;;0.85;0.85;;;;;;;;;;6219606;23;20217;-93
2023/08/13 05:02:46;;;;;;;0.80;0.80;;;;;;;;;;6221937;23;20197;-93
2023/08/13 05:05:15;;;;;;;0.70;0.70;;;;;;;;;;6222458;23;20205;-92
2023/08/13 05:07:42;;;;;;;1.02;1.02;;;;;;;;;;6221164;23;20216;-93
2023/08/13 05:10:10;;;;;;;1.10;1.00;;;;;;;;;;6219525;23;20194;-93
2023/08/13 05:12:38;;;;;;;1.52;1.20;;;;;;;;;;6220162;23;20348;-93
2023/08/13 05:15:07;;;;;;;0.93;0.93;;;;;;;;;;6218365;23;20237;-92
2023/08/13 05:17:36;;;;;;;1.33;1.23;;;;;;;;;;6219134;23;20200;-93
2023/08/13 05:20:05;;;;;;;1.10;1.10;;;;;;;;;;6227004;23;20248;-94
2023/08/13 05:22:34;;;;;;;1.52;1.42;;;;;;;;;;6230039;23;20174;-93
2023/08/13 05:25:02;;;;;;;2.25;1.40;;;;;;;;;;6231396;23;20188;-93
2023/08/13 05:27:29;;;;;;;1.00;1.00;;;;;;;;;;6229527;23;20205;-93
2023/08/13 05:29:57;;;;;;;0.93;0.93;;;;;;;;;;6228840;23;20197;-93
2023/08/13 05:32:25;;;;;;;1.50;1.30;;;;;;;;;;6231277;23;20177;-93
2023/08/13 05:34:53;;;;;;;1.45;1.35;;;;;;;;;;6242403;23;20177;-94
2023/08/13 05:37:20;;;;;;;0.90;0.90;;;;;;;;;;6232153;23;20176;-93
2023/08/13 05:39:50;;;;;;;0.90;0.90;;;;;;;;;;6228894;23;20173;-93
2023/08/13 05:42:18;;;;;;;1.40;1.00;;;;;;;;;;6226044;23;20212;-92
2023/08/13 05:44:46;;;;;;;3.20;1.73;;;;;;;;;;6226965;23;20185;-94
2023/08/13 05:47:13;;;;;;;1.20;1.20;;;;;;;;;;6227415;23;20197;-92
2023/08/13 05:49:41;;;;;;;1.60;1.20;;;;;;;;;;6228096;23;20181;-93
2023/08/13 05:52:08;;;;;;;1.42;1.33;;;;;;;;;;6228754;23;20196;-93
2023/08/13 05:54:36;;;;;;;1.50;1.40;;;;;;;;;;6228369;23;20170;-93
2023/08/13 05:57:05;;;;;;;1.90;1.80;;;;;;;;;;6229055;23;20178;-93
2023/08/13 05:59:33;;;;;;;2.75;2.28;;;;;;;;;;6227821;23;20181;-93
2023/08/13 06:02:01;;;;;;;2.03;1.92;;;;;;;;;;6228158;23;20220;-93
2023/08/13 06:04:28;;;;;;;2.20;2.00;;;;;;;;;;6227410;23;20181;-93
2023/08/13 06:06:56;;;;;;;1.70;1.60;;;;;;;;;;6229418;23;20216;-93
2023/08/13 06:09:24;;;;;;;1.33;1.30;;;;;;;;;;6228438;23;20190;-93
2023/08/13 06:11:51;;;;;;;1.42;1.33;;;;;;;;;;6227212;23;20197;-93
2023/08/13 06:14:20;;;;;;;2.28;1.77;;;;;;;;;;6230139;23;20173;-93
2023/08/13 06:16:48;;;;;;;1.85;1.75;;;;;;;;;;6227309;23;20177;-93
2023/08/13 06:19:16;;;;;;;1.55;1.45;;;;;;;;;;6234722;23;20153;-93
2023/08/13 06:21:43;;;;;;;1.20;1.20;;;;;;;;;;6235994;23;20190;-92
2023/08/13 06:24:11;;;;;;;1.38;1.27;;;;;;;;;;6228167;23;20177;-93
2023/08/13 06:26:39;;;;;;;1.30;1.20;;;;;;;;;;6228899;23;20174;-93
2023/08/13 06:29:06;;;;;;;1.00;1.00;;;;;;;;;;6228871;23;20189;-93
2023/08/13 06:31:37;;;;;;;0.90;0.90;;;;;;;;;;6226896;23;20193;-93
2023/08/13 06:34:05;;;;;;;1.35;0.98;;;;;;;;;;6228486;23;20199;-93
2023/08/13 06:36:33;;;;;;;1.85;0.90;;;;;;;;;;6233767;23;20176;-94
2023/08/13 06:39:00;;;;;;;1.13;1.13;;;;;;;;;;6230791;23;20610;-93
2023/08/13 06:41:28;;;;;;;1.83;1.73;;;;;;;;;;6228552;23;20201;-93
2023/08/13 06:43:55;;;;;;;2.03;1.92;;;;;;;;;;6229334;23;20185;-93
2023/08/13 06:46:22;;;;;;;1.30;1.20;;;;;;;;;;6229351;23;20170;-93
2023/08/13 06:48:51;;;;;;;1.20;1.20;;;;;;;;;;6231006;23;20190;-93
2023/08/13 06:51:20;;;;;;;1.23;1.23;;;;;;;;;;6231235;23;20221;-93
2023/08/13 06:53:47;;;;;;;1.60;1.50;;;;;;;;;;6230280;23;20440;-92
2023/08/13 06:56:15;;;;;;;1.52;1.42;;;;;;;;;;6231230;23;20180;-94
2023/08/13 06:58:42;;;;;;;1.80;1.70;;;;;;;;;;6231433;23;20174;-93
2023/08/13 07:01:10;;;;;;;1.80;1.70;;;;;;;;;;6230987;23;20193;-93
2023/08/13 07:03:38;;;;;;;1.48;1.38;;;;;;;;;;6232065;23;20180;-93
2023/08/13 07:06:07;;;;;;;3.40;1.73;;;;;;;;;;6231495;23;20178;-94
2023/08/13 07:08:35;;;;;;;1.73;1.20;;;;;;;;;;6233392;23;20220;-93
2023/08/13 07:11:02;;;;;;;1.40;1.30;;;;;;;;;;6232763;23;20190;-93
2023/08/13 07:13:30;;;;;;;1.40;1.30;;;;;;;;;;6232408;23;20177;-94
2023/08/13 07:15:57;;;;;;;1.70;1.60;;;;;;;;;;6233885;23;20193;-93
2023/08/13 07:18:25;;;;;;;1.23;1.20;;;;;;;;;;6231750;23;20182;-93
2023/08/13 07:20:53;;;;;;;1.80;1.35;;;;;;;;;;6232617;23;20193;-93
2023/08/13 07:23:22;;;;;;;1.05;1.05;;;;;;;;;;6232228;23;20180;-94
2023/08/13 07:25:49;;;;;;;1.50;1.40;;;;;;;;;;6233037;23;20181;-93
2023/08/13 07:28:17;;;;;;;1.50;1.40;;;;;;;;;;6233329;23;20190;-94
2023/08/13 07:30:45;;;;;;;0.98;0.98;;;;;;;;;;6234067;23;20190;-94
2023/08/13 07:33:13;;;;;;;1.38;1.30;;;;;;;;;;6238958;23;20170;-93
2023/08/13 07:35:41;;;;;;;1.60;1.48;;;;;;;;;;6242729;23;20169;-94
2023/08/13 07:38:09;;;;;;;1.67;1.30;;;;;;;;;;6240799;23;20170;-93
2023/08/13 07:40:38;;;;;;;1.00;1.00;;;;;;;;;;6234625;23;20194;-93
2023/08/13 07:43:06;;;;;;;1.40;1.30;;;;;;;;;;6234237;23;20185;-94
2023/08/13 07:45:34;;;;;;;1.90;1.80;;;;;;;;;;6234983;23;20170;-94
2023/08/13 07:48:02;;;;;;;1.67;1.58;;;;;;;;;;6237146;23;20193;-92
2023/08/13 07:50:30;;;;;;;1.48;1.38;;;;;;;;;;6235527;23;20264;-94
2023/08/13 07:52:58;;;;;;;0.95;0.95;;;;;;;;;;6234854;23;20196;-93
2023/08/13 07:55:25;;;;;;;0.90;0.90;;;;;;;;;;6236234;23;20173;-93
2023/08/13 07:57:55;;;;;;;1.23;1.13;;;;;;;;;;6236456;23;20177;-94
2023/08/13 08:00:22;;;;;;;1.80;1.70;;;;;;;;;;6237147;23;20174;-93
2023/08/13 08:02:50;;;;;;;1.17;1.15;;;;;;;;;;6237745;23;20181;-94
2023/08/13 08:05:17;;;;;;;1.90;1.80;;;;;;;;;;6239143;23;20169;-93
2023/08/13 08:07:45;;;;;;;1.42;1.33;;;;;;;;;;6240800;23;20170;-94
2023/08/13 08:10:13;;;;;;;1.55;1.45;;;;;;;;;;6241048;23;20197;-94
2023/08/13 08:12:41;;;;;;;1.58;1.48;;;;;;;;;;6240346;23;20161;-94
2023/08/13 08:15:11;;;;;;;1.85;1.75;;;;;;;;;;6240272;23;20180;-94
2023/08/13 08:17:38;;;;;;;1.70;1.60;;;;;;;;;;6240932;23;20177;-95
2023/08/13 08:20:08;;;;;;;1.55;1.45;;;;;;;;;;6241252;23;20169;-93
2023/08/13 08:22:36;;;;;;;1.40;1.30;;;;;;;;;;6238325;23;20193;-93
2023/08/13 08:25:08;;;;;;;1.60;1.50;;;;;;;;;;6238326;23;20181;-94
2023/08/13 08:27:36;;;;;;;1.52;1.50;;;;;;;;;;6237941;23;20222;-93
2023/08/13 08:30:04;;;;;;;1.45;1.35;;;;;;;;;;6237360;23;20158;-93
2023/08/13 08:32:35;;;;;;;1.92;1.67;;;;;;;;;;6238814;23;20170;-93
2023/08/13 08:35:03;;;;;;;2.17;1.90;;;;;;;;;;6238208;23;20174;-93
2023/08/13 08:37:31;;;;;;;1.98;1.88;;;;;;;;;;6238131;23;20174;-94
2023/08/13 08:39:59;;;;;;;1.30;1.30;;;;;;;;;;6239034;23;20177;-93
2023/08/13 08:42:27;;;;;;;1.40;1.30;;;;;;;;;;6241390;23;20205;-94
2023/08/13 08:44:55;;;;;;;0.88;0.82;;;;;;;;;;6242864;23;20160;-94
2023/08/13 08:47:23;;;;;;;1.33;1.23;;;;;;;;;;6242241;23;20165;-93
2023/08/13 08:49:56;;;;;;;1.65;1.45;;;;;;;;;;6243032;23;20189;-94
2023/08/13 08:52:24;;;;;;;1.35;1.30;;;;;;;;;;6242202;23;20174;-94
2023/08/13 08:54:52;;;;;;;1.30;1.23;;;;;;;;;;6243074;23;20158;-94
2023/08/13 08:57:19;;;;;;;1.60;1.20;;;;;;;;;;6243363;23;20173;-94
2023/08/13 08:59:47;;;;;;;1.35;1.10;;;;;;;;;;6242769;23;20161;-94
2023/08/13 09:02:14;;;;;;;2.17;1.98;;;;;;;;;;6243004;23;20200;-94
2023/08/13 09:04:43;;;;;;;2.58;1.90;;;;;;;;;;6241771;23;20161;-95
2023/08/13 09:07:12;;;;;;;1.98;1.83;;;;;;;;;;6243271;23;20162;-93
2023/08/13 09:09:43;;;;;;;2.22;1.50;;;;;;;;;;6242451;23;20204;-93
2023/08/13 09:12:10;;;;;;;1.98;1.77;;;;;;;;;;6241684;23;20213;-94
2023/08/13 09:14:38;;;;;;;1.60;1.50;;;;;;;;;;6242561;23;20188;-94
2023/08/13 09:17:06;;;;;;;1.30;1.20;;;;;;;;;;6243190;23;20153;-95
2023/08/13 09:19:34;;;;;;;1.80;1.65;;;;;;;;;;6242610;23;20177;-93
2023/08/13 09:22:03;;;;;;;1.30;1.20;;;;;;;;;;6242204;23;20189;-93
2023/08/13 09:24:37;;;;;;;1.88;1.77;;;;;;;;;;6242609;23;20196;-93
2023/08/13 09:27:07;;;;;;;1.77;1.67;;;;;;;;;;6242834;23;20153;-94
2023/08/13 09:29:35;;;;;;;1.73;1.63;;;;;;;;;;6243091;23;20182;-94
2023/08/13 09:32:05;;;;;;;2.40;2.20;;;;;;;;;;6242522;23;20178;-94
2023/08/13 09:34:34;;;;;;;2.97;2.05;;;;;;;;;;6243634;23;20162;-94
2023/08/13 09:37:02;;;;;;;1.83;1.73;;;;;;;;;;6243538;23;20182;-94
2023/08/13 09:39:31;;;;;;;2.53;1.85;;;;;;;;;;6243498;23;20162;-95
2023/08/13 09:42:02;;;;;;;2.13;1.92;;;;;;;;;;6242817;23;20182;-94
2023/08/13 09:44:30;;;;;;;2.38;2.00;;;;;;;;;;6243357;23;20167;-95
2023/08/13 09:47:02;;;;;;;1.42;1.33;;;;;;;;;;6243273;23;20146;-96
2023/08/13 09:49:32;;;;;;;1.75;1.52;;;;;;;;;;6243204;23;20181;-95
2023/08/13 09:52:08;;;;;;;1.73;1.63;;;;;;;;;;6243199;23;20173;-94
2023/08/13 09:54:42;;;;;;;1.75;1.65;;;;;;;;;;6243341;23;20188;-95
2023/08/13 09:57:13;;;;;;;1.88;1.77;;;;;;;;;;6243320;23;20156;-95
2023/08/13 09:59:41;;;;;;;1.70;1.60;;;;;;;;;;6243248;23;20172;-95
2023/08/13 10:02:11;;;;;;;3.58;2.60;;;;;;;;;;6243142;23;20204;-93
2023/08/13 10:04:40;;;;;;;1.40;1.30;;;;;;;;;;6243063;23;20188;-94
2023/08/13 10:07:08;;;;;;;1.90;1.65;;;;;;;;;;6243062;23;20158;-93
2023/08/13 10:09:38;;;;;;;1.70;1.60;;;;;;;;;;6243295;23;20173;-94
2023/08/13 10:12:09;;;;;;;2.35;1.90;;;;;;;;;;6242714;23;20162;-94
2023/08/13 10:14:38;;;;;;;4.15;2.72;;;;;;;;;;6242628;23;20150;-95
2023/08/13 10:17:08;;;;;;;2.03;1.90;;;;;;;;;;6243219;23;20153;-94
2023/08/13 10:19:39;;;;;;;1.88;1.77;;;;;;;;;;6243195;23;20236;-95
2023/08/13 10:22:10;;;;;;;2.00;1.80;;;;;;;;;;6242978;23;20188;-95
2023/08/13 10:24:37;;;;;;;1.85;1.75;;;;;;;;;;6243076;23;20169;-94
2023/08/13 10:27:05;;;;;;;1.77;1.67;;;;;;;;;;6243288;23;20162;-95
2023/08/13 10:29:43;;;;;;;1.13;1.13;;;;;;;;;;6242940;23;20173;-95
2023/08/13 10:32:16;;;;;;;1.55;1.45;;;;;;;;;;6242220;23;20182;-94
2023/08/13 10:34:47;;;;;;;2.75;1.50;;;;;;;;;;6242974;23;20157;-94
2023/08/13 10:37:17;;;;;;;2.30;1.52;;;;;;;;;;6243024;23;20158;-95
2023/08/13 10:39:45;;;;;;;1.45;1.38;;;;;;;;;;6242582;23;20153;-94
2023/08/13 10:42:51;;;;;;;1.50;1.40;;;;;;;;;;6242654;23;20233;-95
2023/08/13 10:45:22;;;;;;;2.25;2.15;;;;;;;;;;6243110;23;20149;-94
2023/08/13 10:47:54;;;;;;;1.83;1.73;;;;;;;;;;6243002;23;20177;-94
2023/08/13 10:50:29;;;;;;;2.40;2.20;;;;;;;;;;6242824;23;20188;-95
2023/08/13 10:53:04;;;;;;;1.90;1.80;;;;;;;;;;6242756;23;20176;-96
2023/08/13 10:55:35;;;;;;;2.75;2.17;;;;;;;;;;6243042;23;20161;-94
2023/08/13 10:58:03;;;;;;;1.67;1.58;;;;;;;;;;6242931;23;20154;-95
2023/08/13 11:00:33;;;;;;;1.60;1.45;;;;;;;;;;6242743;23;20181;-95
2023/08/13 11:03:19;;;;;;;1.77;1.67;;;;;;;;;;6242009;23;20167;-94
2023/08/13 11:05:47;;;;;;;1.95;1.85;;;;;;;;;;6242790;23;20174;-94
2023/08/13 11:08:18;;;;;;;2.38;1.70;;;;;;;;;;6242816;23;20146;-96
2023/08/13 11:10:47;;;;;;;2.38;2.22;;;;;;;;;;6242570;23;20214;-94
2023/08/13 11:13:15;;;;;;;1.70;1.60;;;;;;;;;;6242667;23;20149;-94
2023/08/13 11:15:50;;;;;;;1.70;1.60;;;;;;;;;;6242586;23;20154;-95
2023/08/13 11:18:18;;;;;;;1.70;1.50;;;;;;;;;;6242868;23;20172;-95
2023/08/13 11:20:46;;;;;;;1.80;1.70;;;;;;;;;;6242644;23;20210;-95
2023/08/13 11:23:14;;;;;;;2.53;1.70;;;;;;;;;;6242698;23;20209;-95
2023/08/13 11:25:43;;;;;;;1.83;1.73;;;;;;;;;;6242761;23;20158;-95
2023/08/13 11:28:11;;;;;;;1.10;1.10;;;;;;;;;;6242821;23;20161;-94
2023/08/13 11:30:41;;;;;;;1.70;1.60;;;;;;;;;;6242566;23;20186;-94
2023/08/13 11:33:10;;;;;;;1.48;1.38;;;;;;;;;;6241890;23;20157;-94
2023/08/13 11:35:38;;;;;;;1.25;1.23;;;;;;;;;;6242784;23;20142;-94
2023/08/13 11:38:06;;;;;;;1.88;1.77;;;;;;;;;;6242968;23;20149;-94
2023/08/13 11:40:34;;;;;;;2.08;1.98;;;;;;;;;;6242623;23;20213;-95
2023/08/13 11:43:03;;;;;;;1.80;1.70;;;;;;;;;;6242432;23;20154;-95
2023/08/13 11:45:33;;;;;;;2.40;1.75;;;;;;;;;;6242697;23;20162;-95
2023/08/13 11:48:14;;;;;;;1.77;1.67;;;;;;;;;;6242952;23;20193;-95
2023/08/13 11:50:46;;;;;;;2.03;1.92;;;;;;;;;;6242619;23;20186;-95
2023/08/13 11:53:16;;;;;;;1.60;1.50;;;;;;;;;;6244506;23;20150;-95
2023/08/13 11:55:46;;;;;;;2.05;1.90;;;;;;;;;;6244539;23;20170;-95
2023/08/13 11:58:17;;;;;;;1.75;1.60;;;;;;;;;;6244493;23;20153;-95
2023/08/13 12:00:45;;;;;;;1.23;1.20;;;;;;;;;;6244228;23;20189;-94
2023/08/13 12:03:15;;;;;;;1.98;1.77;;;;;;;;;;6244183;23;20158;-95
2023/08/13 12:05:43;;;;;;;1.90;1.80;;;;;;;;;;6244618;23;20150;-94
2023/08/13 12:08:11;;;;;;;1.92;1.70;;;;;;;;;;6244320;23;20169;-95
2023/08/13 12:10:40;;;;;;;1.60;1.50;;;;;;;;;;6244128;23;20213;-94
2023/08/13 12:13:08;;;;;;;1.83;1.70;;;;;;;;;;6243929;23;20154;-96
2023/08/13 12:15:37;;;;;;;1.40;1.30;;;;;;;;;;6244002;23;20146;-95
2023/08/13 12:18:05;;;;;;;1.90;1.80;;;;;;;;;;6244263;23;20150;-95
2023/08/13 12:20:35;;;;;;;1.70;1.60;;;;;;;;;;6244122;23;20189;-95
2023/08/13 12:23:02;;;;;;;1.80;1.70;;;;;;;;;;6243870;23;20165;-95
2023/08/13 12:25:30;;;;;;;2.45;2.33;;;;;;;;;;6244039;23;20153;-95
2023/08/13 12:27:58;;;;;;;2.22;1.75;;;;;;;;;;6244084;23;20166;-95
2023/08/13 12:30:26;;;;;;;1.83;1.73;;;;;;;;;;6244055;23;20197;-95
2023/08/13 12:32:53;;;;;;;2.10;1.90;;;;;;;;;;6243358;23;20172;-94
2023/08/13 12:35:21;;;;;;;1.70;1.60;;;;;;;;;;6243975;23;20149;-94
2023/08/13 12:37:51;;;;;;;1.27;1.23;;;;;;;;;;6244112;23;20150;-95
2023/08/13 12:40:19;;;;;;;1.60;1.50;;;;;;;;;;6243769;23;20166;-96
2023/08/13 12:42:47;;;;;;;1.83;1.73;;;;;;;;;;6243548;23;20149;-94
2023/08/13 12:45:14;;;;;;;1.65;1.55;;;;;;;;;;6244064;23;20157;-95
2023/08/13 12:47:42;;;;;;;1.73;1.63;;;;;;;;;;6243916;23;20177;-94
2023/08/13 12:50:10;;;;;;;1.88;1.77;;;;;;;;;;6243712;23;20150;-94
2023/08/13 14:11:08;;;;;;;1.02;1.02;;;;;;;;;;6275046;23;20219;-94
2023/08/13 14:13:36;;;;;;;1.33;1.33;;;;;;;;;;6275063;23;20150;-94
2023/08/13 14:16:04;;;;;;;1.25;1.20;;;;;;;;;;6274566;23;20170;-95
2023/08/13 14:18:31;;;;;;;1.17;1.10;;;;;;;;;;6275010;23;20150;-95
2023/08/13 14:20:59;;;;;;;1.20;1.20;;;;;;;;;;6275090;23;20145;-95
2023/08/13 14:23:27;;;;;;;1.38;1.27;;;;;;;;;;6274917;23;20156;-95
2023/08/13 14:25:54;;;;;;;1.10;1.10;;;;;;;;;;6275038;23;20145;-94
2023/08/13 14:28:23;;;;;;;1.42;1.27;;;;;;;;;;6275164;23;20145;-96
2023/08/13 14:30:51;;;;;;;1.33;1.27;;;;;;;;;;6274967;23;20152;-94
2023/08/13 14:33:19;;;;;;;1.20;1.10;;;;;;;;;;6274449;23;20142;-94
2023/08/13 14:35:46;;;;;;;1.42;1.33;;;;;;;;;;6274894;23;20145;-95
2023/08/13 14:38:14;;;;;;;1.40;1.30;;;;;;;;;;6275085;23;20149;-94
2023/08/13 14:40:42;;;;;;;1.40;1.20;;;;;;;;;;6274717;23;20149;-95
2023/08/13 14:43:10;;;;;;;1.08;1.08;;;;;;;;;;6274600;23;20145;-95
2023/08/13 14:45:39;;;;;;;1.38;1.30;;;;;;;;;;6275035;23;20153;-94
2023/08/13 14:48:07;;;;;;;0.80;0.80;;;;;;;;;;6275050;23;20156;-94
2023/08/13 14:50:35;;;;;;;1.02;1.02;;;;;;;;;;6274794;23;20145;-95
2023/08/13 14:53:03;;;;;;;2.08;1.58;;;;;;;;;;6274629;23;20157;-94
2023/08/13 14:55:31;;;;;;;1.20;1.10;;;;;;;;;;6274946;23;20142;-95
2023/08/13 14:57:59;;;;;;;1.02;1.02;;;;;;;;;;6274790;23;20157;-95
2023/08/13 15:00:27;;;;;;;1.00;1.00;;;;;;;;;;6274819;23;20163;-95
2023/08/13 15:02:56;;;;;;;1.35;1.25;;;;;;;;;;6274718;23;20157;-95
2023/08/13 15:05:23;;;;;;;1.27;1.20;;;;;;;;;;6274922;23;20145;-95
2023/08/13 15:07:51;;;;;;;1.67;1.20;;;;;;;;;;6274537;23;20153;-95
2023/08/13 15:10:19;;;;;;;0.93;0.93;;;;;;;;;;6274643;23;20157;-94
2023/08/13 15:12:46;;;;;;;0.90;0.90;;;;;;;;;;6274283;23;20168;-95
2023/08/13 15:15:14;;;;;;;0.85;0.85;;;;;;;;;;6274520;23;20150;-95
2023/08/13 15:17:42;;;;;;;1.13;1.13;;;;;;;;;;6274803;23;20171;-95
2023/08/13 15:20:12;;;;;;;1.63;1.40;;;;;;;;;;6274805;23;20146;-96
2023/08/13 15:22:40;;;;;;;1.10;1.10;;;;;;;;;;6274606;23;20142;-94
2023/08/13 15:25:09;;;;;;;1.10;1.08;;;;;;;;;;6274739;23;20144;-95
2023/08/13 15:27:37;;;;;;;1.25;1.15;;;;;;;;;;6276442;23;20145;-94
2023/08/13 15:30:05;;;;;;;1.35;1.08;;;;;;;;;;6276675;23;20149;-95
2023/08/13 15:32:33;;;;;;;1.45;1.35;;;;;;;;;;6275969;23;20162;-93
2023/08/13 15:35:01;;;;;;;1.38;1.27;;;;;;;;;;6276836;23;20156;-95
2023/08/13 15:37:30;;;;;;;1.10;1.10;;;;;;;;;;6276668;23;20154;-96
2023/08/13 15:39:58;;;;;;;1.23;1.00;;;;;;;;;;6276493;23;20145;-95
2023/08/13 15:42:25;;;;;;;1.20;1.20;;;;;;;;;;6276274;23;20152;-93
2023/08/13 15:44:53;;;;;;;0.88;0.88;;;;;;;;;;6276611;23;20152;-94
2023/08/13 15:47:21;;;;;;;1.30;1.20;;;;;;;;;;6276679;23;20160;-95
2023/08/13 15:49:49;;;;;;;1.70;1.33;;;;;;;;;;6276559;23;20389;-95
2023/08/13 15:52:16;;;;;;;1.60;1.25;;;;;;;;;;6276183;23;20180;-94
2023/08/13 15:54:46;;;;;;;1.10;1.10;;;;;;;;;;6276453;23;20208;-94
2023/08/13 15:57:13;;;;;;;1.35;1.30;;;;;;;;;;6276499;23;20157;-95
2023/08/13 15:59:41;;;;;;;1.27;1.13;;;;;;;;;;6276522;23;20146;-95
2023/08/13 16:02:09;;;;;;;1.00;1.00;;;;;;;;;;6276204;23;20264;-95
2023/08/13 16:04:37;;;;;;;1.00;1.00;;;;;;;;;;6276380;23;20206;-95
2023/08/13 16:07:05;;;;;;;1.45;1.25;;;;;;;;;;6276368;23;20146;-94
2023/08/13 16:09:32;;;;;;;1.25;1.15;;;;;;;;;;6276317;23;20157;-94